createdAt,value
2023-03-29T00:00:10.294Z,0.86
2023-03-29T00:01:50.038Z,0.85
2023-03-29T00:03:29.809Z,0.85
2023-03-29T00:05:09.574Z,0.86
2023-03-29T00:06:49.328Z,0.85
2023-03-29T00:08:29.096Z,0.86
2023-03-29T00:10:08.910Z,0.85
2023-03-29T00:11:48.685Z,0.86
2023-03-29T00:13:28.383Z,0.85
2023-03-29T00:15:08.134Z,0.85
2023-03-29T00:16:47.906Z,0.83
2023-03-29T00:18:27.677Z,0.83
2023-03-29T00:20:07.445Z,0.82
2023-03-29T00:21:47.215Z,0.83
2023-03-29T00:23:26.974Z,0.84
2023-03-29T00:25:06.739Z,0.85
2023-03-29T00:26:46.494Z,0.84
2023-03-29T00:28:26.262Z,0.86
2023-03-29T00:30:06.025Z,0.86
2023-03-29T00:31:45.787Z,0.86
2023-03-29T00:33:25.553Z,0.84
2023-03-29T00:35:05.314Z,0.85
2023-03-29T00:36:45.067Z,0.84
2023-03-29T00:38:24.853Z,0.86
2023-03-29T00:40:04.625Z,0.83
2023-03-29T00:41:44.366Z,0.84
2023-03-29T00:43:24.145Z,0.82
2023-03-29T00:45:03.905Z,0.83
2023-03-29T00:46:43.674Z,0.82
2023-03-29T00:48:23.439Z,0.83
2023-03-29T00:50:03.201Z,0.83
2023-03-29T00:51:42.961Z,0.83
2023-03-29T00:53:22.705Z,0.81
2023-03-29T00:55:02.480Z,0.84
2023-03-29T00:56:42.250Z,0.84
2023-03-29T00:58:22.002Z,0.79
2023-03-29T01:00:01.774Z,0.83
2023-03-29T01:01:41.538Z,0.83
2023-03-29T01:03:21.303Z,0.84
2023-03-29T01:05:01.067Z,0.86
2023-03-29T01:06:40.837Z,0.86
2023-03-29T01:08:20.597Z,0.85
2023-03-29T01:10:00.476Z,0.85
2023-03-29T01:11:40.115Z,0.87
2023-03-29T01:13:19.890Z,0.86
2023-03-29T01:14:59.640Z,0.86
2023-03-29T01:16:39.420Z,0.84
2023-03-29T01:18:19.170Z,0.85
2023-03-29T01:19:58.956Z,0.84
2023-03-29T01:21:38.706Z,0.85
2023-03-29T01:23:18.462Z,0.85
2023-03-29T01:24:58.255Z,0.82
2023-03-29T01:26:38.005Z,0.84
2023-03-29T01:28:17.759Z,0.83
2023-03-29T01:29:57.529Z,0.84
2023-03-29T01:31:37.296Z,0.82
2023-03-29T01:33:17.058Z,0.8
2023-03-29T01:34:56.901Z,0.8
2023-03-29T01:36:36.582Z,0.8
2023-03-29T01:38:16.357Z,0.78
2023-03-29T01:39:56.112Z,0.77
2023-03-29T01:41:35.880Z,0.76
2023-03-29T01:43:15.620Z,0.75
2023-03-29T01:44:55.409Z,0.74
2023-03-29T01:46:35.159Z,0.73
2023-03-29T01:48:14.932Z,0.73
2023-03-29T01:49:54.681Z,0.71
2023-03-29T01:51:34.455Z,0.71
2023-03-29T01:53:14.222Z,0.69
2023-03-29T01:54:53.996Z,0.67
2023-03-29T01:56:33.738Z,0.69
2023-03-29T01:58:13.509Z,0.68
2023-03-29T01:59:53.269Z,0.68
2023-03-29T02:01:33.039Z,0.65
2023-03-29T02:03:12.810Z,0.67
2023-03-29T02:04:52.592Z,0.68
2023-03-29T02:06:32.317Z,0.67
2023-03-29T02:08:12.094Z,0.66
2023-03-29T02:09:51.859Z,0.66
2023-03-29T02:11:31.631Z,0.65
2023-03-29T02:13:11.397Z,0.65
2023-03-29T02:14:51.152Z,0.66
2023-03-29T02:16:30.923Z,0.66
2023-03-29T02:18:10.674Z,0.67
2023-03-29T02:19:50.477Z,0.67
2023-03-29T02:21:30.240Z,0.68
2023-03-29T02:23:09.969Z,0.69
2023-03-29T02:24:49.724Z,0.7
2023-03-29T02:26:29.500Z,0.69
2023-03-29T02:28:09.251Z,0.68
2023-03-29T02:29:49.214Z,0.64
2023-03-29T02:31:28.769Z,0.67
2023-03-29T02:33:08.582Z,0.68
2023-03-29T02:34:48.300Z,0.65
2023-03-29T02:36:28.070Z,0.67
2023-03-29T02:38:07.840Z,0.64
2023-03-29T02:39:47.594Z,0.64
2023-03-29T02:41:27.597Z,0.63
2023-03-29T02:43:07.129Z,0.58
2023-03-29T02:44:46.893Z,0.61
2023-03-29T02:46:26.670Z,0.61
2023-03-29T02:48:06.438Z,0.58
2023-03-29T02:49:46.189Z,0.57
2023-03-29T02:51:25.956Z,0.55
2023-03-29T02:53:05.715Z,0.52
2023-03-29T02:54:45.498Z,0.5
2023-03-29T02:56:25.249Z,0.48
2023-03-29T02:58:04.999Z,0.47
2023-03-29T02:59:44.761Z,0.46
2023-03-29T03:01:24.524Z,0.46
2023-03-29T03:03:04.298Z,0.45
2023-03-29T03:04:44.061Z,0.42
2023-03-29T03:06:23.832Z,0.41
2023-03-29T03:08:03.597Z,0.39
2023-03-29T03:09:43.365Z,0.39
2023-03-29T03:11:23.127Z,0.38
2023-03-29T03:13:02.881Z,0.37
2023-03-29T03:14:42.647Z,0.31
2023-03-29T03:16:22.415Z,0.35
2023-03-29T03:18:02.183Z,0.33
2023-03-29T03:19:41.961Z,0.31
2023-03-29T03:21:21.696Z,0.28
2023-03-29T03:23:01.491Z,0.29
2023-03-29T03:24:41.227Z,0.26
2023-03-29T03:26:21.005Z,0.23
2023-03-29T03:28:00.753Z,0.23
2023-03-29T03:29:40.536Z,0.23
2023-03-29T03:31:20.291Z,0.2
2023-03-29T03:33:00.049Z,0.18
2023-03-29T03:34:39.801Z,0.17
2023-03-29T03:36:19.573Z,0.14
2023-03-29T03:37:59.337Z,0.16
2023-03-29T03:39:39.091Z,0.15
2023-03-29T03:41:18.860Z,0.14
2023-03-29T03:42:58.624Z,0.14
2023-03-29T03:44:38.381Z,0.14
2023-03-29T03:46:18.170Z,0.14
2023-03-29T03:47:57.920Z,0.13
2023-03-29T03:49:37.688Z,0.14
2023-03-29T03:51:17.427Z,0.12
2023-03-29T03:52:57.211Z,0.14
2023-03-29T03:54:36.962Z,0.14
2023-03-29T03:56:16.789Z,0.17
2023-03-29T03:57:56.508Z,0.15
2023-03-29T03:59:36.267Z,0.17
2023-03-29T04:01:16.037Z,0.14
2023-03-29T04:02:55.795Z,0.16
2023-03-29T04:04:35.558Z,0.16
2023-03-29T04:06:15.356Z,0.17
2023-03-29T04:07:55.091Z,0.16
2023-03-29T04:09:34.839Z,0.16
2023-03-29T04:11:14.600Z,0.13
2023-03-29T04:12:54.386Z,0.15
2023-03-29T04:14:34.115Z,0.16
2023-03-29T04:16:13.911Z,0.15
2023-03-29T04:17:53.684Z,0.17
2023-03-29T04:19:33.438Z,0.15
2023-03-29T04:21:13.196Z,0.15
2023-03-29T04:22:53.016Z,0.16
2023-03-29T04:24:32.706Z,0.15
2023-03-29T04:26:12.538Z,0.15
2023-03-29T04:27:52.245Z,0.13
2023-03-29T04:29:32.022Z,0.13
2023-03-29T04:31:11.773Z,0.14
2023-03-29T04:32:51.546Z,0.11
2023-03-29T04:34:31.298Z,0.1
2023-03-29T04:36:11.080Z,0.13
2023-03-29T04:37:50.864Z,0.12
2023-03-29T04:39:30.620Z,0.11
2023-03-29T04:41:10.410Z,0.09
2023-03-29T04:42:50.141Z,0.11
2023-03-29T04:44:29.990Z,0.09
2023-03-29T04:46:09.648Z,0.1
2023-03-29T04:47:49.412Z,0.1
2023-03-29T04:49:29.180Z,0.1
2023-03-29T04:51:08.932Z,0.08
2023-03-29T04:52:48.706Z,0.12
2023-03-29T04:54:28.490Z,0.11
2023-03-29T04:56:08.277Z,0.1
2023-03-29T04:57:48.001Z,0.11
2023-03-29T04:59:27.771Z,0.11
2023-03-29T05:01:07.529Z,0.13
2023-03-29T05:02:47.313Z,0.15
2023-03-29T05:04:27.063Z,0.13
2023-03-29T05:06:06.833Z,0.13
2023-03-29T05:07:46.585Z,0.15
2023-03-29T05:09:26.360Z,0.15
2023-03-29T05:11:06.170Z,0.16
2023-03-29T05:12:45.872Z,0.18
2023-03-29T05:14:25.651Z,0.21
2023-03-29T05:16:05.401Z,0.21
2023-03-29T05:17:45.165Z,0.22
2023-03-29T05:19:24.925Z,0.25
2023-03-29T05:21:04.700Z,0.24
2023-03-29T05:22:44.459Z,0.26
2023-03-29T05:24:24.229Z,0.26
2023-03-29T05:26:03.988Z,0.24
2023-03-29T05:27:43.776Z,0.28
2023-03-29T05:29:23.509Z,0.3
2023-03-29T05:31:03.277Z,0.31
2023-03-29T05:32:43.041Z,0.31
2023-03-29T05:34:22.798Z,0.33
2023-03-29T05:36:02.582Z,0.33
2023-03-29T05:37:42.325Z,0.35
2023-03-29T05:39:22.089Z,0.36
2023-03-29T05:41:01.857Z,0.36
2023-03-29T05:42:41.649Z,0.36
2023-03-29T05:44:21.401Z,0.38
2023-03-29T05:46:01.148Z,0.39
2023-03-29T05:47:40.909Z,0.35
2023-03-29T05:49:20.664Z,0.39
2023-03-29T05:51:00.447Z,0.38
2023-03-29T05:52:40.207Z,0.41
2023-03-29T05:54:19.988Z,0.42
2023-03-29T05:55:59.733Z,0.4
2023-03-29T05:57:39.493Z,0.39
2023-03-29T05:59:19.265Z,0.46
2023-03-29T06:00:59.013Z,0.46
2023-03-29T06:02:38.784Z,0.49
2023-03-29T06:04:18.550Z,0.52
2023-03-29T06:05:58.312Z,0.55
2023-03-29T06:07:38.096Z,0.58
2023-03-29T06:09:17.842Z,0.61
2023-03-29T06:10:57.654Z,0.63
2023-03-29T06:12:37.364Z,0.68
2023-03-29T06:14:17.140Z,0.7
2023-03-29T06:15:56.921Z,0.73
2023-03-29T06:17:36.661Z,0.82
2023-03-29T06:19:16.448Z,0.84
2023-03-29T06:20:56.183Z,0.88
2023-03-29T06:22:35.947Z,0.91
2023-03-29T06:24:15.738Z,0.98
2023-03-29T06:25:55.473Z,1.03
2023-03-29T06:27:35.253Z,1.11
2023-03-29T06:29:15.029Z,1.12
2023-03-29T06:30:54.779Z,1.17
2023-03-29T06:32:34.549Z,1.27
2023-03-29T06:34:14.312Z,1.34
2023-03-29T06:35:54.085Z,1.39
2023-03-29T06:37:33.830Z,1.45
2023-03-29T06:39:13.602Z,1.49
2023-03-29T06:40:53.445Z,1.54
2023-03-29T06:42:33.124Z,1.61
2023-03-29T06:44:12.902Z,1.66
2023-03-29T06:45:52.657Z,1.74
2023-03-29T06:47:32.426Z,1.76
2023-03-29T06:49:12.203Z,1.82
2023-03-29T06:50:51.931Z,1.9
2023-03-29T06:52:31.717Z,1.9
2023-03-29T06:54:11.468Z,2.02
2023-03-29T06:55:51.270Z,2.07
2023-03-29T06:57:31.005Z,2.1
2023-03-29T06:59:10.761Z,2.16
2023-03-29T07:00:50.532Z,2.25
2023-03-29T07:02:30.283Z,2.28
2023-03-29T07:04:10.095Z,2.34
2023-03-29T07:05:49.810Z,2.39
2023-03-29T07:07:29.575Z,2.44
2023-03-29T07:09:09.348Z,2.54
2023-03-29T07:10:49.167Z,2.56
2023-03-29T07:12:28.871Z,2.6
2023-03-29T07:14:08.685Z,2.65
2023-03-29T07:15:48.408Z,2.71
2023-03-29T07:17:28.169Z,2.76
2023-03-29T07:19:07.993Z,2.8
2023-03-29T07:20:47.677Z,2.85
2023-03-29T07:22:27.451Z,2.86
2023-03-29T07:24:07.401Z,2.93
2023-03-29T07:25:46.982Z,2.96
2023-03-29T07:27:26.820Z,3.02
2023-03-29T07:29:06.518Z,3.06
2023-03-29T07:30:46.322Z,3.12
2023-03-29T07:32:26.035Z,3.17
2023-03-29T07:34:05.813Z,3.28
2023-03-29T07:35:45.560Z,3.29
2023-03-29T07:37:25.324Z,3.33
2023-03-29T07:39:05.090Z,3.4
2023-03-29T07:40:44.904Z,3.45
2023-03-29T07:42:24.609Z,3.5
2023-03-29T07:44:04.377Z,3.54
2023-03-29T07:45:44.147Z,3.58
2023-03-29T07:47:23.920Z,3.64
2023-03-29T07:49:03.700Z,3.68
2023-03-29T07:50:43.438Z,3.69
2023-03-29T07:52:23.198Z,3.78
2023-03-29T07:54:02.958Z,3.83
2023-03-29T07:55:42.730Z,3.91
2023-03-29T07:57:22.501Z,3.93
2023-03-29T07:59:02.252Z,3.97
2023-03-29T08:00:42.016Z,4.02
2023-03-29T08:02:21.780Z,4.05
2023-03-29T08:04:01.540Z,4.1
2023-03-29T08:05:41.313Z,4.17
2023-03-29T08:07:21.084Z,4.23
2023-03-29T08:09:00.839Z,4.33
2023-03-29T08:10:40.604Z,4.37
2023-03-29T08:12:20.367Z,4.41
2023-03-29T08:14:00.123Z,4.48
2023-03-29T08:15:39.916Z,4.53
2023-03-29T08:17:19.659Z,4.56
2023-03-29T08:18:59.440Z,4.59
2023-03-29T08:20:39.232Z,4.65
2023-03-29T08:22:18.986Z,4.71
2023-03-29T08:23:58.736Z,4.78
2023-03-29T08:25:38.473Z,4.81
2023-03-29T08:27:18.247Z,4.85
2023-03-29T08:28:58.030Z,4.9
2023-03-29T08:30:37.766Z,4.94
2023-03-29T08:32:17.600Z,4.96
2023-03-29T08:33:57.295Z,5
2023-03-29T08:35:37.067Z,5
2023-03-29T08:37:16.860Z,5.06
2023-03-29T08:38:56.613Z,5.08
2023-03-29T08:40:36.350Z,5.1
2023-03-29T08:42:16.110Z,5.11
2023-03-29T08:43:55.873Z,5.14
2023-03-29T08:45:35.718Z,5.15
2023-03-29T08:47:15.399Z,5.18
2023-03-29T08:48:55.173Z,5.17
2023-03-29T08:50:34.946Z,5.24
2023-03-29T08:52:14.713Z,5.27
2023-03-29T08:53:54.468Z,5.28
2023-03-29T08:55:34.227Z,5.38
2023-03-29T08:57:13.995Z,5.44
2023-03-29T08:58:53.799Z,5.55
2023-03-29T09:00:33.537Z,5.6
2023-03-29T09:02:13.300Z,5.74
2023-03-29T09:03:53.053Z,5.81
2023-03-29T09:05:32.814Z,5.87
2023-03-29T09:07:12.578Z,5.92
2023-03-29T09:08:52.348Z,5.97
2023-03-29T09:10:32.101Z,6
2023-03-29T09:12:11.859Z,6.02
2023-03-29T09:13:51.633Z,6.11
2023-03-29T09:15:31.391Z,6.17
2023-03-29T09:17:11.201Z,6.2
2023-03-29T09:18:50.947Z,6.3
2023-03-29T09:20:30.685Z,6.37
2023-03-29T09:22:10.461Z,6.46
2023-03-29T09:23:50.218Z,6.54
2023-03-29T09:25:29.977Z,6.6
2023-03-29T09:27:09.753Z,6.66
2023-03-29T09:28:49.517Z,6.71
2023-03-29T09:30:29.284Z,6.75
2023-03-29T09:32:09.038Z,6.75
2023-03-29T09:33:48.815Z,6.75
2023-03-29T09:35:28.574Z,6.77
2023-03-29T09:37:08.347Z,6.78
2023-03-29T09:38:48.108Z,6.78
2023-03-29T09:40:27.858Z,6.82
2023-03-29T09:42:07.607Z,6.9
2023-03-29T09:43:47.395Z,6.91
2023-03-29T09:45:27.140Z,6.97
2023-03-29T09:47:06.905Z,6.96
2023-03-29T09:48:46.691Z,6.99
2023-03-29T09:50:26.443Z,7.02
2023-03-29T09:52:06.213Z,7.11
2023-03-29T09:53:45.971Z,7.18
2023-03-29T09:55:25.720Z,7.22
2023-03-29T09:57:05.502Z,7.29
2023-03-29T09:58:45.276Z,7.37
2023-03-29T10:00:25.028Z,7.48
2023-03-29T10:02:04.770Z,7.52
2023-03-29T10:03:44.556Z,7.56
2023-03-29T10:05:24.310Z,7.63
2023-03-29T10:07:04.076Z,7.64
2023-03-29T10:08:43.914Z,7.63
2023-03-29T10:10:23.600Z,7.61
2023-03-29T10:12:03.356Z,7.63
2023-03-29T10:13:43.164Z,7.61
2023-03-29T10:15:22.912Z,7.68
2023-03-29T10:17:02.727Z,7.69
2023-03-29T10:20:22.173Z,7.76
2023-03-29T10:22:01.977Z,7.77
2023-03-29T10:23:41.703Z,7.72
2023-03-29T10:25:21.509Z,7.77
2023-03-29T10:27:01.240Z,7.78
2023-03-29T10:28:41.010Z,7.81
2023-03-29T10:30:20.901Z,7.77
2023-03-29T10:32:00.569Z,7.78
2023-03-29T10:33:40.301Z,7.85
2023-03-29T10:35:20.052Z,7.9
2023-03-29T10:36:59.833Z,7.92
2023-03-29T10:38:39.650Z,7.96
2023-03-29T10:40:19.348Z,7.97
2023-03-29T10:41:59.162Z,8
2023-03-29T10:43:38.883Z,8.09
2023-03-29T10:45:18.682Z,8.21
2023-03-29T10:46:58.403Z,8.3
2023-03-29T10:48:38.195Z,8.34
2023-03-29T10:50:17.944Z,8.39
2023-03-29T10:51:57.700Z,8.5
2023-03-29T10:53:37.453Z,8.58
2023-03-29T10:55:17.241Z,8.66
2023-03-29T10:56:56.995Z,8.76
2023-03-29T10:58:36.762Z,8.85
2023-03-29T11:00:16.523Z,8.97
2023-03-29T11:01:56.278Z,9.05
2023-03-29T11:03:36.050Z,9.09
2023-03-29T11:05:15.821Z,9.16
2023-03-29T11:06:55.584Z,9.22
2023-03-29T11:08:35.363Z,9.32
2023-03-29T11:10:15.099Z,9.35
2023-03-29T11:11:54.877Z,9.39
2023-03-29T11:13:34.627Z,9.45
2023-03-29T11:15:14.400Z,9.5
2023-03-29T11:16:54.172Z,9.45
2023-03-29T11:18:33.941Z,9.41
2023-03-29T11:20:13.688Z,9.37
2023-03-29T11:21:53.469Z,9.37
2023-03-29T11:23:33.220Z,9.32
2023-03-29T11:25:12.969Z,9.29
2023-03-29T11:26:52.727Z,9.28
2023-03-29T11:28:32.502Z,9.31
2023-03-29T11:30:12.270Z,9.3
2023-03-29T11:31:52.026Z,9.28
2023-03-29T11:33:31.790Z,9.34
2023-03-29T11:35:11.568Z,9.35
2023-03-29T11:36:51.339Z,9.37
2023-03-29T11:38:31.122Z,9.43
2023-03-29T11:40:10.868Z,9.47
2023-03-29T11:41:50.622Z,9.49
2023-03-29T11:43:30.389Z,9.52
2023-03-29T11:45:10.143Z,9.54
2023-03-29T11:46:49.904Z,9.59
2023-03-29T11:48:29.685Z,9.6
2023-03-29T11:50:09.439Z,9.71
2023-03-29T11:51:49.208Z,9.71
2023-03-29T11:53:28.953Z,9.72
2023-03-29T11:55:08.724Z,9.77
2023-03-29T11:56:48.493Z,9.8
2023-03-29T11:58:29.256Z,9.87
2023-03-29T12:00:08.029Z,9.89
2023-03-29T12:01:47.780Z,9.93
2023-03-29T12:03:27.536Z,9.93
2023-03-29T12:05:07.298Z,9.95
2023-03-29T12:06:47.082Z,9.96
2023-03-29T12:08:26.852Z,9.97
2023-03-29T12:10:06.621Z,9.99
2023-03-29T12:11:46.367Z,10.03
2023-03-29T12:13:26.120Z,10.06
2023-03-29T12:15:05.891Z,10.05
2023-03-29T12:16:45.656Z,10.14
2023-03-29T12:18:25.423Z,10.22
2023-03-29T12:20:05.193Z,10.33
2023-03-29T12:21:44.969Z,10.46
2023-03-29T12:23:24.708Z,10.55
2023-03-29T12:25:04.466Z,10.59
2023-03-29T12:26:44.246Z,10.63
2023-03-29T12:28:23.998Z,10.67
2023-03-29T12:30:03.781Z,10.69
2023-03-29T12:31:43.520Z,10.71
2023-03-29T12:33:23.285Z,10.72
2023-03-29T12:35:03.093Z,10.74
2023-03-29T12:36:42.812Z,10.74
2023-03-29T12:38:22.616Z,10.74
2023-03-29T12:40:02.360Z,10.69
2023-03-29T12:41:42.116Z,10.74
2023-03-29T12:43:21.892Z,10.77
2023-03-29T12:45:01.646Z,10.77
2023-03-29T12:46:41.445Z,10.81
2023-03-29T12:48:21.173Z,10.77
2023-03-29T12:50:00.939Z,10.79
2023-03-29T12:51:40.708Z,10.78
2023-03-29T12:53:20.464Z,10.75
2023-03-29T12:55:00.236Z,10.74
2023-03-29T12:56:40.005Z,10.76
2023-03-29T12:58:19.760Z,10.72
2023-03-29T12:59:59.523Z,10.72
2023-03-29T13:01:39.285Z,10.72
2023-03-29T13:03:19.068Z,10.74
2023-03-29T13:04:58.806Z,10.77
2023-03-29T13:06:38.580Z,10.76
2023-03-29T13:08:18.355Z,10.75
2023-03-29T13:09:58.094Z,10.7
2023-03-29T13:11:37.879Z,10.68
2023-03-29T13:13:17.641Z,10.72
2023-03-29T13:14:57.394Z,10.74
2023-03-29T13:16:37.168Z,10.75
2023-03-29T13:18:16.906Z,10.79
2023-03-29T13:19:56.689Z,10.78
2023-03-29T13:21:36.468Z,10.78
2023-03-29T13:23:16.209Z,10.79
2023-03-29T13:24:55.980Z,10.81
2023-03-29T13:26:35.741Z,10.81
2023-03-29T13:28:15.494Z,10.8
2023-03-29T13:29:55.280Z,10.8
2023-03-29T13:31:35.031Z,10.77
2023-03-29T13:33:14.799Z,10.79
2023-03-29T13:34:54.556Z,10.77
2023-03-29T13:36:34.325Z,10.76
2023-03-29T13:38:14.097Z,10.75
2023-03-29T13:39:53.910Z,10.76
2023-03-29T13:41:33.651Z,10.76
2023-03-29T13:43:13.407Z,10.71
2023-03-29T13:44:53.141Z,10.75
2023-03-29T13:46:32.922Z,10.72
2023-03-29T13:48:12.683Z,10.7
2023-03-29T13:49:52.427Z,10.67
2023-03-29T13:51:32.237Z,10.66
2023-03-29T13:53:11.976Z,10.62
2023-03-29T13:54:51.733Z,10.6
2023-03-29T13:56:31.485Z,10.58
2023-03-29T13:58:11.245Z,10.57
2023-03-29T13:59:51.037Z,10.55
2023-03-29T14:01:30.785Z,10.55
2023-03-29T14:03:10.559Z,10.55
2023-03-29T14:04:50.308Z,10.55
2023-03-29T14:06:30.079Z,10.56
2023-03-29T14:08:09.848Z,10.56
2023-03-29T14:09:49.622Z,10.56
2023-03-29T14:11:29.366Z,10.55
2023-03-29T14:13:09.131Z,10.58
2023-03-29T14:14:48.922Z,10.56
2023-03-29T14:16:28.655Z,10.61
2023-03-29T14:18:08.436Z,10.54
2023-03-29T14:19:48.195Z,10.55
2023-03-29T14:21:27.949Z,10.54
2023-03-29T14:23:07.723Z,10.51
2023-03-29T14:24:47.482Z,10.5
2023-03-29T14:26:27.253Z,10.49
2023-03-29T14:28:07.027Z,10.47
2023-03-29T14:29:46.765Z,10.47
2023-03-29T14:31:26.523Z,10.45
2023-03-29T14:33:06.325Z,10.43
2023-03-29T14:34:46.069Z,10.41
2023-03-29T14:36:25.822Z,10.41
2023-03-29T14:38:05.612Z,10.43
2023-03-29T14:39:45.358Z,10.43
2023-03-29T14:41:25.142Z,10.44
2023-03-29T14:43:04.876Z,10.4
2023-03-29T14:44:44.651Z,10.41
2023-03-29T14:46:24.428Z,10.39
2023-03-29T14:48:04.168Z,10.37
2023-03-29T14:49:43.933Z,10.38
2023-03-29T14:51:23.708Z,10.36
2023-03-29T14:53:03.471Z,10.35
2023-03-29T14:54:43.223Z,10.34
2023-03-29T14:56:23.011Z,10.34
2023-03-29T14:58:02.755Z,10.33
2023-03-29T14:59:42.522Z,10.32
2023-03-29T15:01:22.292Z,10.31
2023-03-29T15:03:02.034Z,10.32
2023-03-29T15:04:41.821Z,10.33
2023-03-29T15:06:21.568Z,10.34
2023-03-29T15:08:01.333Z,10.31
2023-03-29T15:09:41.098Z,10.32
2023-03-29T15:11:20.873Z,10.32
2023-03-29T15:13:00.622Z,10.34
2023-03-29T15:14:40.397Z,10.3
2023-03-29T15:16:20.166Z,10.34
2023-03-29T15:17:59.916Z,10.33
2023-03-29T15:19:39.676Z,10.35
2023-03-29T15:21:19.438Z,10.36
2023-03-29T15:22:59.220Z,10.36
2023-03-29T15:24:38.991Z,10.36
2023-03-29T15:26:18.728Z,10.34
2023-03-29T15:27:58.516Z,10.35
2023-03-29T15:29:38.692Z,10.35
2023-03-29T15:31:18.046Z,10.35
2023-03-29T15:32:57.804Z,10.32
2023-03-29T15:34:37.571Z,10.34
2023-03-29T15:36:17.322Z,10.35
2023-03-29T15:37:57.102Z,10.31
2023-03-29T15:39:36.849Z,10.31
2023-03-29T15:41:16.715Z,10.34
2023-03-29T15:42:56.366Z,10.36
2023-03-29T15:44:36.231Z,10.39
2023-03-29T15:46:15.911Z,10.41
2023-03-29T15:47:55.679Z,10.42
2023-03-29T15:49:35.452Z,10.43
2023-03-29T15:51:15.202Z,10.36
2023-03-29T15:52:54.976Z,10.42
2023-03-29T15:54:34.719Z,10.41
2023-03-29T15:56:14.497Z,10.4
2023-03-29T15:57:54.264Z,10.37
2023-03-29T15:59:34.024Z,10.41
2023-03-29T16:01:13.797Z,10.39
2023-03-29T16:02:53.541Z,10.4
2023-03-29T16:04:33.335Z,10.37
2023-03-29T16:06:13.085Z,10.37
2023-03-29T16:07:52.841Z,10.34
2023-03-29T16:09:32.638Z,10.34
2023-03-29T16:11:12.414Z,10.35
2023-03-29T16:12:52.136Z,10.3
2023-03-29T16:14:31.899Z,10.31
2023-03-29T16:16:11.653Z,10.3
2023-03-29T16:17:51.419Z,10.28
2023-03-29T16:19:31.190Z,10.26
2023-03-29T16:21:10.974Z,10.24
2023-03-29T16:22:50.706Z,10.26
2023-03-29T16:24:30.477Z,10.24
2023-03-29T16:26:10.252Z,10.22
2023-03-29T16:27:50.013Z,10.18
2023-03-29T16:29:29.791Z,10.18
2023-03-29T16:31:09.548Z,10.18
2023-03-29T16:32:49.303Z,10.18
2023-03-29T16:34:29.060Z,10.16
2023-03-29T16:36:08.816Z,10.13
2023-03-29T16:37:48.627Z,10.14
2023-03-29T16:39:28.339Z,10.14
2023-03-29T16:41:08.106Z,10.13
2023-03-29T16:42:47.896Z,10.12
2023-03-29T16:44:27.629Z,10.1
2023-03-29T16:46:07.407Z,10.12
2023-03-29T16:47:47.155Z,10.08
2023-03-29T16:49:26.958Z,10.07
2023-03-29T16:51:06.687Z,10.06
2023-03-29T16:52:46.464Z,10.05
2023-03-29T16:54:26.229Z,10.03
2023-03-29T16:56:05.978Z,10
2023-03-29T16:57:45.752Z,10.04
2023-03-29T16:59:25.528Z,10
2023-03-29T17:01:05.272Z,9.97
2023-03-29T17:02:45.073Z,10
2023-03-29T17:04:24.812Z,9.97
2023-03-29T17:06:04.575Z,9.97
2023-03-29T17:07:44.343Z,9.93
2023-03-29T17:09:24.095Z,9.93
2023-03-29T17:11:03.854Z,9.93
2023-03-29T17:12:43.692Z,9.91
2023-03-29T17:14:23.390Z,9.89
2023-03-29T17:16:03.159Z,9.88
2023-03-29T17:17:42.908Z,9.85
2023-03-29T17:19:22.683Z,9.85
2023-03-29T17:21:02.453Z,9.82
2023-03-29T17:22:42.199Z,9.83
2023-03-29T17:24:21.966Z,9.81
2023-03-29T17:26:01.746Z,9.8
2023-03-29T17:27:41.558Z,9.8
2023-03-29T17:29:21.251Z,9.78
2023-03-29T17:31:01.032Z,9.76
2023-03-29T17:32:40.791Z,9.76
2023-03-29T17:34:20.554Z,9.75
2023-03-29T17:36:00.330Z,9.75
2023-03-29T17:37:40.097Z,9.74
2023-03-29T17:39:19.854Z,9.72
2023-03-29T17:40:59.615Z,9.72
2023-03-29T17:42:39.461Z,9.71
2023-03-29T17:44:19.133Z,9.7
2023-03-29T17:45:58.893Z,9.68
2023-03-29T17:47:38.685Z,9.68
2023-03-29T17:49:18.446Z,9.67
2023-03-29T17:50:58.221Z,9.64
2023-03-29T17:52:37.952Z,9.63
2023-03-29T17:54:17.731Z,9.62
2023-03-29T17:55:57.491Z,9.62
2023-03-29T17:57:37.259Z,9.6
2023-03-29T17:59:17.019Z,9.6
2023-03-29T18:00:56.772Z,9.6
2023-03-29T18:02:36.553Z,9.6
2023-03-29T18:04:16.299Z,9.58
2023-03-29T18:05:56.059Z,9.55
2023-03-29T18:07:35.845Z,9.56
2023-03-29T18:09:15.607Z,9.55
2023-03-29T18:10:55.378Z,9.54
2023-03-29T18:12:35.118Z,9.53
2023-03-29T18:14:14.883Z,9.52
2023-03-29T18:15:54.656Z,9.5
2023-03-29T18:17:34.425Z,9.49
2023-03-29T18:19:14.168Z,9.49
2023-03-29T18:20:53.954Z,9.49
2023-03-29T18:22:33.734Z,9.49
2023-03-29T18:24:13.471Z,9.47
2023-03-29T18:25:53.250Z,9.46
2023-03-29T18:27:33.006Z,9.43
2023-03-29T18:29:12.818Z,9.43
2023-03-29T18:30:52.539Z,9.39
2023-03-29T18:32:32.293Z,9.42
2023-03-29T18:34:12.059Z,9.39
2023-03-29T18:35:51.808Z,9.41
2023-03-29T18:37:31.600Z,9.38
2023-03-29T18:39:11.357Z,9.38
2023-03-29T18:40:51.126Z,9.37
2023-03-29T18:42:30.881Z,9.37
2023-03-29T18:44:10.652Z,9.35
2023-03-29T18:45:50.400Z,9.35
2023-03-29T18:47:30.185Z,9.34
2023-03-29T18:49:09.946Z,9.35
2023-03-29T18:50:49.696Z,9.34
2023-03-29T18:52:29.457Z,9.32
2023-03-29T18:54:09.241Z,9.34
2023-03-29T18:55:48.976Z,9.32
2023-03-29T18:57:28.754Z,9.31
2023-03-29T18:59:08.531Z,9.31
2023-03-29T19:00:48.284Z,9.29
2023-03-29T19:02:28.043Z,9.3
2023-03-29T19:04:07.806Z,9.27
2023-03-29T19:05:47.566Z,9.28
2023-03-29T19:07:27.352Z,9.27
2023-03-29T19:09:07.119Z,9.27
2023-03-29T19:10:46.861Z,9.26
2023-03-29T19:12:26.629Z,9.24
2023-03-29T19:14:06.396Z,9.26
2023-03-29T19:15:46.162Z,9.24
2023-03-29T19:17:25.949Z,9.22
2023-03-29T19:19:05.680Z,9.22
2023-03-29T19:20:45.456Z,9.24
2023-03-29T19:22:25.232Z,9.22
2023-03-29T19:24:04.991Z,9.22
2023-03-29T19:25:44.738Z,9.22
2023-03-29T19:27:24.528Z,9.21
2023-03-29T19:29:04.267Z,9.21
2023-03-29T19:30:44.039Z,9.21
2023-03-29T19:32:23.802Z,9.2
2023-03-29T19:34:03.568Z,9.18
2023-03-29T19:35:43.319Z,9.18
2023-03-29T19:37:23.112Z,9.18
2023-03-29T19:39:02.868Z,9.18
2023-03-29T19:40:42.624Z,9.17
2023-03-29T19:42:22.388Z,9.18
2023-03-29T19:44:02.143Z,9.16
2023-03-29T19:45:41.909Z,9.16
2023-03-29T19:47:21.677Z,9.13
2023-03-29T19:49:01.423Z,9.13
2023-03-29T19:50:41.185Z,9.1
2023-03-29T19:52:20.967Z,9.12
2023-03-29T19:54:00.723Z,9.09
2023-03-29T19:55:40.482Z,9.07
2023-03-29T19:57:20.246Z,9.06
2023-03-29T19:59:00.013Z,9.03
2023-03-29T20:00:39.779Z,9.03
2023-03-29T20:02:19.548Z,9.02
2023-03-29T20:03:59.308Z,9.01
2023-03-29T20:05:39.074Z,8.99
2023-03-29T20:07:18.812Z,8.97
2023-03-29T20:08:58.596Z,8.97
2023-03-29T20:10:38.356Z,8.99
2023-03-29T20:12:18.126Z,8.97
2023-03-29T20:13:57.886Z,8.96
2023-03-29T20:15:37.634Z,8.95
2023-03-29T20:17:17.441Z,8.93
2023-03-29T20:18:57.180Z,8.93
2023-03-29T20:20:36.943Z,8.93
2023-03-29T20:22:16.729Z,8.93
2023-03-29T20:23:56.458Z,8.93
2023-03-29T20:25:36.240Z,8.92
2023-03-29T20:27:16.000Z,8.93
2023-03-29T20:28:55.768Z,8.91
2023-03-29T20:30:35.519Z,8.91
2023-03-29T20:32:15.308Z,8.89
2023-03-29T20:33:55.173Z,8.89
2023-03-29T20:35:34.831Z,8.89
2023-03-29T20:37:14.587Z,8.89
2023-03-29T20:38:54.348Z,8.88
2023-03-29T20:40:34.097Z,8.88
2023-03-29T20:42:13.861Z,8.88
2023-03-29T20:43:53.639Z,8.85
2023-03-29T20:45:33.439Z,8.87
2023-03-29T20:47:13.168Z,8.87
2023-03-29T20:48:52.922Z,8.87
2023-03-29T20:50:32.681Z,8.85
2023-03-29T20:52:12.472Z,8.85
2023-03-29T20:53:52.223Z,8.87
2023-03-29T20:55:31.999Z,8.85
2023-03-29T20:57:11.757Z,8.85
2023-03-29T20:58:51.522Z,8.85
2023-03-29T21:00:31.281Z,8.85
2023-03-29T21:02:11.049Z,8.85
2023-03-29T21:03:50.813Z,8.83
2023-03-29T21:05:30.577Z,8.83
2023-03-29T21:07:10.357Z,8.81
2023-03-29T21:08:50.105Z,8.81
2023-03-29T21:10:29.870Z,8.8
2023-03-29T21:12:09.617Z,8.8
2023-03-29T21:13:49.391Z,8.79
2023-03-29T21:15:29.151Z,8.8
2023-03-29T21:17:08.925Z,8.78
2023-03-29T21:18:48.679Z,8.78
2023-03-29T21:20:28.447Z,8.77
2023-03-29T21:22:08.227Z,8.78
2023-03-29T21:23:47.976Z,8.76
2023-03-29T21:25:27.742Z,8.77
2023-03-29T21:27:07.510Z,8.77
2023-03-29T21:28:47.267Z,8.75
2023-03-29T21:30:27.028Z,8.75
2023-03-29T21:32:06.794Z,8.72
2023-03-29T21:33:46.586Z,8.72
2023-03-29T21:35:26.316Z,8.72
2023-03-29T21:37:06.086Z,8.7
2023-03-29T21:38:45.844Z,8.72
2023-03-29T21:40:25.602Z,8.71
2023-03-29T21:42:05.359Z,8.7
2023-03-29T21:43:45.147Z,8.68
2023-03-29T21:45:24.911Z,8.7
2023-03-29T21:47:04.685Z,8.68
2023-03-29T21:48:44.435Z,8.67
2023-03-29T21:50:24.197Z,8.68
2023-03-29T21:52:03.976Z,8.66
2023-03-29T21:53:43.717Z,8.66
2023-03-29T21:55:23.498Z,8.66
2023-03-29T21:57:03.248Z,8.66
2023-03-29T21:58:43.010Z,8.64
2023-03-29T22:00:22.781Z,8.64
2023-03-29T22:02:02.580Z,8.63
2023-03-29T22:03:42.321Z,8.6